Main page
METAR-TAF:

METAR-TAF

Airports :

Bolzano, Italy

latitude: 46-28N, longitude: 011-20E, elevation: 262 m

Current weather observation

The report was made 33 minutes ago, at 13:50 UTC
Wind 10 kt from the South, varying between South/Southeast and South/Southwest
Temperature 32°C
Humidity 28%
Pressure 1016 hPa
Visibility 10 km or more
no clouds below 1500 m and no cumulonimbus

METAR: LIPB 281350Z 18010KT 150V210 CAVOK 32/11 Q1016

Time: 16:23 (14:23 UTC)

Forecast

The report was made 3 hours and 23 minutes ago, at 11:00 UTC
Forecast valid from 28 at 12 UTC to 29 at 12 UTC
Wind 13 kt from the South
Visibility 10 km or more
Few clouds at a height of 5000 ft
Temporary
from 28 at 12 UTC to 28 at 17 UTC
Wind 15 kt from the South with gusts up to 28 kt
Becoming
from 28 at 17 UTC to 28 at 20 UTC
Wind 5 kt from variable directions

TAF: LIPB 281100Z 2812/2912 18013KT 9999 FEW050 TEMPO 2812/2817 18015G28KT BECMG 2817/2820 VRB05KT

Weather observations and forecasts of more than 4000 airports (METAR and TAF reports).

The available stations are represented by yellow and red dots on the map.

Hover mouse over dot to see the name of the station.

Then click to see weather observations and forecasts.

To change the map : click on the green buttons with a black cross to zoom in, on the green button with a dash to zoom out, or on the green arrows for adjacent maps.


METAR-TAF: